Time;durP1;ratioP1;P1;durP2;ratioP2;P2;SDS_P1;SDS_P2;PMS_P1;PMS_P2;Temp;Humidity;BMP_temperature;BMP_pressure;BME280_temperature;BME280_humidity;BME280_pressure;Samples;Min_cycle;Max_cycle;Signal;HPM_P1;HPM_P2
2023/11/11 00:00:07;;;;;;;4.83;2.20;;;7.40;99.90;;;;;;4910626;28;20577;-63
2023/11/11 00:02:33;;;;;;;6.47;2.10;;;7.50;99.90;;;;;;4911021;28;20310;-62
2023/11/11 00:04:58;;;;;;;8.23;2.17;;;7.50;99.90;;;;;;4910509;28;20266;-64
2023/11/11 00:07:24;;;;;;;6.30;1.87;;;7.50;99.90;;;;;;4911092;28;20192;-64
2023/11/11 00:09:50;;;;;;;5.03;1.83;;;7.50;99.90;;;;;;4911039;28;20222;-64
2023/11/11 00:12:17;;;;;;;4.53;1.40;;;7.50;99.90;;;;;;4911126;28;20176;-64
2023/11/11 00:14:43;;;;;;;4.23;1.70;;;7.50;99.90;;;;;;4910285;28;20215;-63
2023/11/11 00:17:09;;;;;;;4.93;1.90;;;7.50;99.90;;;;;;4910870;28;20250;-63
2023/11/11 00:19:36;;;;;;;7.57;1.73;;;7.50;99.90;;;;;;4909649;28;20184;-63
2023/11/11 00:22:01;;;;;;;4.50;1.50;;;7.60;99.90;;;;;;4911258;28;20711;-63
2023/11/11 00:24:27;;;;;;;4.83;1.60;;;7.60;99.90;;;;;;4910242;28;20202;-63
2023/11/11 00:26:52;;;;;;;6.20;2.00;;;7.60;99.90;;;;;;4913011;28;20698;-63
2023/11/11 00:29:18;;;;;;;11.13;1.90;;;7.60;99.90;;;;;;4914304;28;20196;-62
2023/11/11 00:31:47;;;;;;;4.33;1.50;;;7.40;99.90;;;;;;4913939;28;20311;-63
2023/11/11 00:34:15;;;;;;;5.07;1.90;;;7.50;99.90;;;;;;4913171;28;20685;-62
2023/11/11 00:36:41;;;;;;;4.33;1.60;;;7.50;99.90;;;;;;4913829;28;20646;-63
2023/11/11 00:39:10;;;;;;;7.57;1.87;;;7.50;99.90;;;;;;4914113;28;20249;-62
2023/11/11 00:41:37;;;;;;;4.17;1.50;;;7.60;99.90;;;;;;4913610;28;20200;-63
2023/11/11 00:44:08;;;;;;;8.77;1.67;;;7.50;99.90;;;;;;4913475;28;20199;-64
2023/11/11 00:46:37;;;;;;;4.90;1.37;;;7.50;99.90;;;;;;4913654;28;20195;-64
2023/11/11 00:49:02;;;;;;;4.60;1.70;;;7.60;99.90;;;;;;4914067;28;20219;-64
2023/11/11 00:51:28;;;;;;;4.40;1.90;;;7.60;99.90;;;;;;4913554;28;20381;-64
2023/11/11 00:53:55;;;;;;;5.40;1.73;;;7.50;99.90;;;;;;4913580;28;20188;-63
2023/11/11 00:56:20;;;;;;;4.73;2.23;;;7.60;99.90;;;;;;4913922;28;20199;-63
2023/11/11 00:58:46;;;;;;;9.20;1.77;;;7.60;99.90;;;;;;4913636;28;20183;-63
2023/11/11 01:01:11;;;;;;;4.83;1.60;;;7.60;99.90;;;;;;4905990;28;20231;-63
2023/11/11 01:03:37;;;;;;;9.60;2.03;;;7.60;99.90;;;;;;4912148;28;20199;-63
2023/11/11 01:06:03;;;;;;;7.97;1.80;;;7.60;99.90;;;;;;4913327;28;20184;-63
2023/11/11 01:08:29;;;;;;;6.27;2.23;;;7.60;99.90;;;;;;4906018;28;20192;-63
2023/11/11 01:10:57;;;;;;;7.57;1.83;;;7.50;99.90;;;;;;4913687;28;20296;-63
2023/11/11 01:13:23;;;;;;;2.80;1.50;;;7.60;99.90;;;;;;4905351;28;20195;-63
2023/11/11 01:15:52;;;;;;;3.17;1.20;;;7.60;99.90;;;;;;4905151;28;20184;-61
2023/11/11 01:18:18;;;;;;;5.30;1.00;;;7.60;99.90;;;;;;4913543;28;20267;-62
2023/11/11 01:20:45;;;;;;;4.00;1.13;;;7.50;99.90;;;;;;4912127;28;20745;-63
2023/11/11 01:23:11;;;;;;;2.60;1.20;;;7.60;99.90;;;;;;4913476;28;20192;-63
2023/11/11 01:25:37;;;;;;;3.40;1.13;;;7.50;99.90;;;;;;4945782;28;20736;-63
2023/11/11 01:28:03;;;;;;;2.67;0.87;;;7.40;99.90;;;;;;4913178;28;20620;-63
2023/11/11 01:30:29;;;;;;;3.27;0.80;;;7.40;99.90;;;;;;4912803;28;20285;-63
2023/11/11 01:32:54;;;;;;;4.10;0.90;;;7.20;99.90;;;;;;4900090;28;20670;-63
2023/11/11 01:35:20;;;;;;;1.93;0.70;;;7.20;99.90;;;;;;4909056;28;20188;-63
2023/11/11 01:37:46;;;;;;;3.63;0.70;;;7.20;99.90;;;;;;4912011;28;20195;-63
2023/11/11 01:40:12;;;;;;;1.43;0.60;;;7.10;99.90;;;;;;4911836;28;20212;-62
2023/11/11 01:42:38;;;;;;;2.47;0.37;;;7.00;99.90;;;;;;4911421;28;20196;-62
2023/11/11 01:45:04;;;;;;;1.03;0.20;;;6.80;99.90;;;;;;4907265;28;20201;-62
2023/11/11 01:47:29;;;;;;;0.93;0.27;;;6.40;99.90;;;;;;4910584;28;20192;-62
2023/11/11 01:49:55;;;;;;;0.97;0.37;;;6.30;99.90;;;;;;4912767;28;20231;-61
2023/11/11 01:52:21;;;;;;;5.63;0.30;;;6.10;99.90;;;;;;4913021;28;20184;-63
2023/11/11 01:54:47;;;;;;;0.73;0.30;;;6.00;99.90;;;;;;4912332;28;20418;-62
2023/11/11 01:57:14;;;;;;;0.20;0.20;;;6.00;99.90;;;;;;4912869;28;20198;-62
2023/11/11 01:59:40;;;;;;;0.50;0.30;;;5.90;99.90;;;;;;4912729;28;20257;-63
2023/11/11 02:02:06;;;;;;;0.30;0.30;;;5.80;99.90;;;;;;4912854;28;20192;-63
2023/11/11 02:04:32;;;;;;;0.47;0.27;;;5.70;99.90;;;;;;4916844;28;20199;-62
2023/11/11 02:06:57;;;;;;;0.50;0.30;;;5.70;99.90;;;;;;4940702;28;20270;-62
2023/11/11 02:09:24;;;;;;;0.30;0.20;;;5.70;99.90;;;;;;4912628;28;20184;-62
2023/11/11 02:11:56;;;;;;;0.43;0.23;;;5.60;99.90;;;;;;4904917;28;20223;-62
2023/11/11 02:14:22;;;;;;;1.70;0.20;;;5.60;99.90;;;;;;4912259;28;20187;-63
2023/11/11 02:16:48;;;;;;;0.93;0.30;;;5.60;99.90;;;;;;4897066;28;20188;-63
2023/11/11 02:19:14;;;;;;;1.27;0.40;;;5.60;99.90;;;;;;4906104;28;20185;-63
2023/11/11 02:21:39;;;;;;;0.27;0.20;;;5.60;99.90;;;;;;4911155;28;20677;-63
2023/11/11 02:24:07;;;;;;;1.23;0.20;;;5.50;99.90;;;;;;4911931;28;20689;-63
2023/11/11 02:26:33;;;;;;;0.50;0.20;;;5.50;99.90;;;;;;4912180;28;20207;-63
2023/11/11 02:28:59;;;;;;;0.30;0.30;;;5.50;99.90;;;;;;4912317;28;20649;-63
2023/11/11 02:31:24;;;;;;;0.40;0.30;;;5.50;99.90;;;;;;4904496;28;20239;-62
2023/11/11 02:33:50;;;;;;;0.20;0.20;;;5.50;99.90;;;;;;4911886;28;20192;-62
2023/11/11 02:36:16;;;;;;;0.13;0.13;;;5.50;99.90;;;;;;4912296;28;20250;-63
2023/11/11 02:38:41;;;;;;;1.77;0.37;;;5.40;99.90;;;;;;4912133;28;20208;-63
2023/11/11 02:41:07;;;;;;;0.20;0.20;;;5.40;99.90;;;;;;4912179;28;20472;-63
2023/11/11 02:43:33;;;;;;;0.30;0.20;;;5.40;99.90;;;;;;4911934;28;20249;-63
2023/11/11 02:45:58;;;;;;;0.27;0.20;;;5.40;99.90;;;;;;4904024;28;20188;-63
2023/11/11 02:48:24;;;;;;;0.73;0.43;;;5.40;99.90;;;;;;4911541;28;20629;-63
2023/11/11 02:50:49;;;;;;;0.50;0.40;;;5.40;99.90;;;;;;4912201;28;20200;-64
2023/11/11 02:53:15;;;;;;;0.80;0.60;;;5.40;99.90;;;;;;4911667;28;20199;-63
2023/11/11 02:55:40;;;;;;;1.50;0.50;;;5.50;99.90;;;;;;4911445;28;20657;-63
2023/11/11 02:58:06;;;;;;;0.80;0.47;;;5.50;99.90;;;;;;4906544;28;20266;-63
2023/11/11 03:00:32;;;;;;;4.37;0.60;;;5.50;99.90;;;;;;4909647;28;20211;-63
2023/11/11 03:02:57;;;;;;;1.30;0.40;;;5.40;99.90;;;;;;4912151;28;20246;-63
2023/11/11 03:05:23;;;;;;;0.53;0.30;;;5.50;99.90;;;;;;4911687;28;20184;-63
2023/11/11 03:07:49;;;;;;;0.60;0.30;;;5.50;99.90;;;;;;4904717;28;20187;-63
2023/11/11 03:10:15;;;;;;;2.40;0.40;;;5.50;99.90;;;;;;4912038;28;20689;-62
2023/11/11 03:12:41;;;;;;;0.83;0.40;;;5.40;99.90;;;;;;4912007;28;20180;-62
2023/11/11 03:15:08;;;;;;;1.03;0.83;;;5.40;99.90;;;;;;4911272;28;20397;-63
2023/11/11 03:17:33;;;;;;;1.93;0.50;;;5.40;99.90;;;;;;4911782;28;20279;-61
2023/11/11 03:19:59;;;;;;;0.63;0.40;;;5.30;99.90;;;;;;4911536;28;20656;-62
2023/11/11 03:22:25;;;;;;;2.33;0.40;;;5.40;99.90;;;;;;4911493;28;20176;-63
2023/11/11 03:24:51;;;;;;;2.20;0.50;;;5.40;99.90;;;;;;4910950;28;20723;-63
2023/11/11 03:27:17;;;;;;;1.03;0.50;;;5.40;99.90;;;;;;4911578;28;20237;-63
2023/11/11 03:29:42;;;;;;;2.03;0.80;;;5.40;99.90;;;;;;4911557;28;20183;-63
2023/11/11 03:32:08;;;;;;;1.73;0.70;;;5.40;99.90;;;;;;4911627;28;20211;-63
2023/11/11 03:34:35;;;;;;;1.90;0.60;;;5.40;99.90;;;;;;4910986;28;20187;-61
2023/11/11 03:37:00;;;;;;;3.50;0.60;;;5.40;99.90;;;;;;4911729;28;20187;-63
2023/11/11 03:39:26;;;;;;;0.83;0.57;;;5.40;99.90;;;;;;4911389;28;20180;-63
2023/11/11 03:41:52;;;;;;;1.10;0.60;;;5.40;99.90;;;;;;4911319;28;20207;-61
2023/11/11 03:44:17;;;;;;;3.43;0.70;;;5.40;99.90;;;;;;4910839;28;20183;-63
2023/11/11 03:46:43;;;;;;;1.73;0.70;;;5.40;99.90;;;;;;4911337;28;20238;-64
2023/11/11 03:49:09;;;;;;;1.43;0.67;;;5.50;99.90;;;;;;4911333;28;20211;-63
2023/11/11 03:51:34;;;;;;;2.20;0.97;;;5.50;99.90;;;;;;4911113;28;20272;-63
2023/11/11 03:54:00;;;;;;;3.07;0.90;;;5.50;99.90;;;;;;4910638;28;20190;-63
2023/11/11 03:56:25;;;;;;;1.93;1.10;;;5.50;99.90;;;;;;4910893;28;20180;-63
2023/11/11 03:58:51;;;;;;;2.47;1.43;;;5.60;99.90;;;;;;4903493;28;20211;-63
2023/11/11 04:01:17;;;;;;;3.57;1.40;;;5.60;99.90;;;;;;4905769;28;20207;-60
2023/11/11 04:03:43;;;;;;;2.67;1.60;;;5.60;99.90;;;;;;4913336;28;20184;-63
2023/11/11 04:06:12;;;;;;;4.87;2.20;;;5.60;99.90;;;;;;4914094;28;20187;-63
2023/11/11 04:08:39;;;;;;;5.23;3.00;;;5.60;99.90;;;;;;4914324;28;20192;-64
2023/11/11 04:11:08;;;;;;;4.47;2.43;;;5.60;99.90;;;;;;4914290;28;20215;-63
2023/11/11 04:13:34;;;;;;;5.00;3.17;;;5.60;99.90;;;;;;4914094;28;20709;-64
2023/11/11 04:16:01;;;;;;;6.60;3.37;;;5.70;99.90;;;;;;4914026;28;20195;-63
2023/11/11 04:18:27;;;;;;;11.47;3.70;;;5.70;99.90;;;;;;4914537;28;20184;-63
2023/11/11 04:20:52;;;;;;;8.50;4.37;;;5.70;99.90;;;;;;4914136;28;20281;-63
2023/11/11 04:23:20;;;;;;;9.63;4.93;;;5.70;99.90;;;;;;4914170;28;20196;-62
2023/11/11 04:25:46;;;;;;;9.20;4.43;;;5.80;99.90;;;;;;4913668;28;20191;-64
2023/11/11 04:28:12;;;;;;;8.97;4.30;;;5.80;99.90;;;;;;4914084;28;20559;-64
2023/11/11 04:30:37;;;;;;;14.63;5.83;;;5.80;99.90;;;;;;4913864;28;20216;-64
2023/11/11 04:33:03;;;;;;;11.50;5.67;;;5.90;99.90;;;;;;4914099;28;20567;-64
2023/11/11 04:35:28;;;;;;;9.57;5.40;;;5.90;99.90;;;;;;4913433;28;20184;-64
2023/11/11 04:37:54;;;;;;;11.93;5.57;;;5.90;99.90;;;;;;4914083;28;20192;-64
2023/11/11 04:40:21;;;;;;;11.97;5.60;;;5.90;99.90;;;;;;4912862;28;20495;-63
2023/11/11 04:42:47;;;;;;;9.67;5.60;;;6.00;99.90;;;;;;4903276;28;20240;-64
2023/11/11 04:45:12;;;;;;;15.77;5.77;;;6.00;99.90;;;;;;4908800;28;20184;-64
2023/11/11 04:47:38;;;;;;;10.97;5.90;;;6.00;99.90;;;;;;4913887;28;20184;-64
2023/11/11 04:50:04;;;;;;;12.00;5.90;;;6.00;99.90;;;;;;4913787;28;20223;-65
2023/11/11 04:52:31;;;;;;;15.07;6.40;;;6.10;99.90;;;;;;4913953;28;20187;-65
2023/11/11 04:54:57;;;;;;;12.57;6.53;;;6.10;99.90;;;;;;4913394;28;20176;-64
2023/11/11 04:57:23;;;;;;;12.50;6.20;;;6.10;99.90;;;;;;4913815;28;20637;-64
2023/11/11 04:59:49;;;;;;;12.57;5.90;;;6.10;99.90;;;;;;4913701;28;20275;-62
2023/11/11 05:02:16;;;;;;;12.70;7.03;;;6.10;99.90;;;;;;4913759;28;20271;-62
2023/11/11 05:04:42;;;;;;;17.17;7.10;;;6.10;99.90;;;;;;4912916;28;20195;-63
2023/11/11 05:07:09;;;;;;;11.93;6.03;;;6.10;99.90;;;;;;4913584;28;20196;-61
2023/11/11 05:09:35;;;;;;;13.57;6.57;;;6.10;99.90;;;;;;4913540;28;20283;-63
2023/11/11 05:12:00;;;;;;;16.97;6.57;;;6.20;99.90;;;;;;4913079;28;20334;-64
2023/11/11 05:14:26;;;;;;;12.77;6.83;;;6.20;99.90;;;;;;4912801;28;20862;-63
2023/11/11 05:16:54;;;;;;;14.40;7.13;;;6.20;99.90;;;;;;4913143;28;20184;-61
2023/11/11 05:19:20;;;;;;;12.67;6.90;;;6.20;99.90;;;;;;4906353;28;20193;-62
2023/11/11 05:21:46;;;;;;;14.97;7.00;;;6.20;99.90;;;;;;4912823;28;20592;-63
2023/11/11 05:24:13;;;;;;;21.67;7.27;;;6.20;99.90;;;;;;4904709;28;20595;-62
2023/11/11 05:26:40;;;;;;;14.13;6.33;;;6.20;99.90;;;;;;4913344;28;20184;-63
2023/11/11 05:29:06;;;;;;;14.00;6.13;;;6.20;99.90;;;;;;4913262;28;20191;-63
2023/11/11 05:31:32;;;;;;;10.30;5.87;;;6.20;99.90;;;;;;4913131;28;20223;-63
2023/11/11 05:33:58;;;;;;;12.60;6.13;;;6.30;99.90;;;;;;4912619;28;20279;-63
2023/11/11 05:36:25;;;;;;;10.33;6.03;;;6.30;99.90;;;;;;4913260;28;20223;-63
2023/11/11 05:38:50;;;;;;;11.57;5.53;;;6.40;99.90;;;;;;4905422;28;20192;-62
2023/11/11 05:41:16;;;;;;;10.47;6.13;;;6.40;99.90;;;;;;4913266;28;20253;-62
2023/11/11 05:43:41;;;;;;;11.40;6.27;;;6.40;99.90;;;;;;4912401;28;20660;-63
2023/11/11 05:46:08;;;;;;;10.27;5.93;;;6.40;99.90;;;;;;4912413;28;20669;-63
2023/11/11 05:48:35;;;;;;;12.33;6.40;;;6.40;99.90;;;;;;4916651;28;20217;-64
2023/11/11 05:51:01;;;;;;;10.57;6.17;;;6.40;99.90;;;;;;4912817;28;20285;-63
2023/11/11 05:53:26;;;;;;;12.40;6.10;;;6.40;99.90;;;;;;4912575;28;20657;-63
2023/11/11 05:55:52;;;;;;;7.67;4.90;;;6.40;99.90;;;;;;4911547;28;20532;-63
2023/11/11 05:58:17;;;;;;;14.00;4.40;;;6.30;99.90;;;;;;4912824;28;20670;-62
2023/11/11 06:00:43;;;;;;;11.90;4.27;;;6.30;99.90;;;;;;4912416;28;20229;-62
2023/11/11 06:03:08;;;;;;;10.17;3.10;;;6.30;99.90;;;;;;4912747;28;20211;-63
2023/11/11 06:05:35;;;;;;;4.07;2.60;;;6.20;99.90;;;;;;4912166;28;20196;-63
2023/11/11 06:08:02;;;;;;;5.20;2.63;;;6.10;99.90;;;;;;4912817;28;20184;-63
2023/11/11 06:10:28;;;;;;;7.97;2.20;;;5.90;99.90;;;;;;4912585;28;20231;-64
2023/11/11 06:12:53;;;;;;;2.83;1.63;;;5.80;99.90;;;;;;4912637;28;20192;-63
2023/11/11 06:15:19;;;;;;;2.20;1.53;;;5.80;99.90;;;;;;4912105;28;20656;-63
2023/11/11 06:17:44;;;;;;;4.67;1.60;;;5.80;99.90;;;;;;4912547;28;20184;-63
2023/11/11 06:20:11;;;;;;;3.80;1.70;;;5.80;99.90;;;;;;4912609;28;20262;-63
2023/11/11 06:22:36;;;;;;;2.30;1.47;;;5.80;99.90;;;;;;4912646;28;20226;-63
2023/11/11 06:25:02;;;;;;;2.30;1.80;;;5.70;99.90;;;;;;4911306;28;20680;-62
2023/11/11 06:27:28;;;;;;;2.80;1.70;;;5.70;99.90;;;;;;4912372;28;20207;-62
2023/11/11 06:29:54;;;;;;;4.13;2.00;;;5.70;99.90;;;;;;4912518;28;20200;-62
2023/11/11 06:32:19;;;;;;;4.17;1.90;;;5.60;99.90;;;;;;4912361;28;20250;-62
2023/11/11 06:34:46;;;;;;;5.43;2.30;;;5.70;99.90;;;;;;4910475;28;20577;-63
2023/11/11 06:37:12;;;;;;;7.80;2.60;;;5.60;99.90;;;;;;4912314;28;20180;-63
2023/11/11 06:39:37;;;;;;;4.97;2.70;;;5.70;99.90;;;;;;4903134;28;20645;-61
2023/11/11 06:42:03;;;;;;;6.10;3.40;;;5.70;99.90;;;;;;4912186;28;20224;-63
2023/11/11 06:44:29;;;;;;;5.10;3.17;;;5.70;99.90;;;;;;4911408;28;20645;-63
2023/11/11 06:46:55;;;;;;;5.37;3.60;;;5.80;99.90;;;;;;4908510;28;20223;-63
2023/11/11 06:49:20;;;;;;;6.63;3.80;;;5.80;99.90;;;;;;4907864;28;20207;-63
2023/11/11 06:51:46;;;;;;;7.20;3.90;;;5.90;99.90;;;;;;4938537;28;20669;-62
2023/11/11 06:54:11;;;;;;;8.00;4.00;;;5.90;99.90;;;;;;4910926;28;20202;-63
2023/11/11 06:56:37;;;;;;;5.73;3.30;;;5.90;99.90;;;;;;4944614;28;20253;-62
2023/11/11 06:59:03;;;;;;;5.40;3.53;;;5.90;99.90;;;;;;4911806;28;20219;-63
2023/11/11 07:01:30;;;;;;;4.70;3.10;;;6.00;99.90;;;;;;4911695;28;20211;-62
2023/11/11 07:03:56;;;;;;;8.83;3.57;;;6.00;99.90;;;;;;4911435;28;20222;-62
2023/11/11 07:06:25;;;;;;;6.97;3.40;;;6.00;99.90;;;;;;4911981;28;20279;-63
2023/11/11 07:08:51;;;;;;;9.37;5.77;;;6.00;99.90;;;;;;4911022;28;20188;-62
2023/11/11 07:11:17;;;;;;;10.63;5.20;;;6.10;99.90;;;;;;4911025;28;20283;-61
2023/11/11 07:13:46;;;;;;;6.13;3.97;;;6.10;99.90;;;;;;4910805;28;20191;-63
2023/11/11 07:16:16;;;;;;;8.10;3.83;;;6.10;99.90;;;;;;4910813;28;20176;-63
2023/11/11 07:18:42;;;;;;;7.53;3.90;;;6.20;99.90;;;;;;4910915;28;20262;-63
2023/11/11 07:21:25;;;;;;;6.67;4.10;;;6.20;99.90;;;;;;4911009;28;20294;-63
2023/11/11 07:23:52;;;;;;;7.03;3.13;;;6.20;99.90;;;;;;4910299;28;20266;-61
2023/11/11 07:26:18;;;;;;;10.57;3.40;;;6.20;99.90;;;;;;4910849;28;20259;-63
2023/11/11 07:28:45;;;;;;;6.03;2.90;;;6.30;99.90;;;;;;4910683;28;20200;-63
2023/11/11 07:31:12;;;;;;;4.27;2.60;;;6.30;99.90;;;;;;4910825;28;20714;-63
2023/11/11 07:33:38;;;;;;;6.70;3.07;;;6.30;99.90;;;;;;4910722;28;20196;-63
2023/11/11 07:36:04;;;;;;;10.80;4.40;;;6.30;99.90;;;;;;4910545;28;20183;-63
2023/11/11 07:38:29;;;;;;;5.10;3.50;;;6.30;99.90;;;;;;4910880;28;20216;-63
2023/11/11 07:40:55;;;;;;;5.73;2.77;;;6.30;99.90;;;;;;4910770;28;20385;-63
2023/11/11 07:43:20;;;;;;;4.23;2.57;;;6.40;99.90;;;;;;4903484;28;20188;-63
2023/11/11 07:45:48;;;;;;;9.47;3.37;;;6.40;99.90;;;;;;4909492;28;20286;-63
2023/11/11 07:48:13;;;;;;;7.53;3.10;;;6.40;99.90;;;;;;4910907;28;20625;-63
2023/11/11 07:50:39;;;;;;;5.17;3.20;;;6.30;99.90;;;;;;4910314;28;20219;-61
2023/11/11 07:53:04;;;;;;;7.90;3.70;;;6.40;99.90;;;;;;4905867;28;20185;-64
2023/11/11 07:55:30;;;;;;;9.87;5.20;;;6.50;99.90;;;;;;4907103;28;20612;-64
2023/11/11 07:57:55;;;;;;;9.90;4.30;;;6.70;99.90;;;;;;4902646;28;20195;-63
2023/11/11 08:00:23;;;;;;;10.93;4.10;;;6.80;99.90;;;;;;4910438;28;20251;-64
2023/11/11 08:02:49;;;;;;;7.43;4.20;;;7.00;99.90;;;;;;4910535;28;20195;-63
2023/11/11 08:05:16;;;;;;;10.90;4.47;;;7.00;99.90;;;;;;4909883;28;20263;-63
2023/11/11 08:07:42;;;;;;;8.23;4.03;;;7.00;99.90;;;;;;4902729;28;20266;-63
2023/11/11 08:10:10;;;;;;;11.63;5.60;;;7.00;99.90;;;;;;4910497;28;20223;-64
2023/11/11 08:12:36;;;;;;;11.70;4.70;;;7.00;99.90;;;;;;4910092;28;20279;-63
2023/11/11 08:15:03;;;;;;;9.73;4.30;;;7.00;99.90;;;;;;4910056;28;20180;-64
2023/11/11 08:17:29;;;;;;;8.83;4.97;;;7.10;99.90;;;;;;4910261;28;20606;-64
2023/11/11 08:19:55;;;;;;;7.77;4.00;;;7.10;99.90;;;;;;4910209;28;20723;-64
2023/11/11 08:22:20;;;;;;;6.57;3.53;;;7.10;99.90;;;;;;4902640;28;20191;-64
2023/11/11 08:24:46;;;;;;;17.40;4.60;;;7.10;99.90;;;;;;4909548;28;20191;-64
2023/11/11 08:27:12;;;;;;;15.47;4.47;;;7.20;99.90;;;;;;4910321;28;20192;-64
2023/11/11 08:29:37;;;;;;;10.83;4.23;;;7.10;99.90;;;;;;4910092;28;20651;-64
2023/11/11 08:32:03;;;;;;;5.37;3.83;;;7.20;99.90;;;;;;4910061;28;20581;-64
2023/11/11 08:34:31;;;;;;;8.90;4.40;;;7.30;99.90;;;;;;4909448;28;20344;-64
2023/11/11 08:36:57;;;;;;;11.73;4.17;;;7.40;99.90;;;;;;4910134;28;20208;-63
2023/11/11 08:39:24;;;;;;;8.30;3.30;;;7.30;99.90;;;;;;4910166;28;20212;-64
2023/11/11 08:41:50;;;;;;;10.00;4.13;;;7.40;99.90;;;;;;4910294;28;20701;-64
2023/11/11 08:44:16;;;;;;;7.70;3.80;;;7.30;99.90;;;;;;4901765;28;20188;-64
2023/11/11 08:46:42;;;;;;;7.33;4.00;;;7.70;99.90;;;;;;4910281;28;20192;-64
2023/11/11 08:49:07;;;;;;;11.67;3.70;;;7.80;99.90;;;;;;4913130;28;20370;-65
2023/11/11 08:51:33;;;;;;;8.53;3.43;;;7.80;99.90;;;;;;4905150;28;20216;-64
2023/11/11 08:54:00;;;;;;;9.43;3.30;;;7.80;99.90;;;;;;4912596;28;20183;-64
2023/11/11 08:56:28;;;;;;;9.53;3.57;;;7.80;99.90;;;;;;4913156;28;20192;-64
2023/11/11 08:58:55;;;;;;;10.67;3.07;;;7.70;99.90;;;;;;4905365;28;20184;-64
2023/11/11 09:01:21;;;;;;;7.10;3.40;;;7.70;99.90;;;;;;4913270;28;20224;-64
2023/11/11 09:03:49;;;;;;;8.10;3.90;;;7.70;99.90;;;;;;4912682;28;20198;-63
2023/11/11 09:06:18;;;;;;;10.37;4.07;;;7.70;99.90;;;;;;4912911;28;20188;-64
2023/11/11 09:08:43;;;;;;;9.90;4.10;;;7.60;99.90;;;;;;4912690;28;20234;-64
2023/11/11 09:11:12;;;;;;;11.53;3.40;;;7.60;99.90;;;;;;4904917;28;20219;-64
2023/11/11 09:13:38;;;;;;;9.13;3.30;;;7.50;99.90;;;;;;4912367;28;20196;-64
2023/11/11 09:16:04;;;;;;;7.23;3.40;;;7.50;99.90;;;;;;4912887;28;20207;-64
2023/11/11 09:18:31;;;;;;;7.63;3.93;;;7.40;99.90;;;;;;4912681;28;20176;-64
2023/11/11 09:20:57;;;;;;;9.50;3.77;;;7.40;99.90;;;;;;4912901;28;20208;-64
2023/11/11 09:23:23;;;;;;;7.33;3.73;;;7.40;99.90;;;;;;4912410;28;20192;-64
2023/11/11 09:25:49;;;;;;;14.10;3.43;;;7.40;99.90;;;;;;4912363;28;20192;-64
2023/11/11 09:28:14;;;;;;;11.80;3.50;;;7.40;99.90;;;;;;4912555;28;20192;-64
2023/11/11 09:30:40;;;;;;;8.37;3.43;;;7.40;99.90;;;;;;4912630;28;20223;-64
2023/11/11 09:33:06;;;;;;;9.87;3.10;;;7.30;99.90;;;;;;4945746;28;20214;-64
2023/11/11 09:35:31;;;;;;;8.90;3.10;;;7.40;99.90;;;;;;4911850;28;20744;-63
2023/11/11 09:37:57;;;;;;;5.07;3.03;;;7.70;99.90;;;;;;4912477;28;20715;-63
2023/11/11 09:40:23;;;;;;;6.23;3.00;;;8.20;99.90;;;;;;4904718;28;20233;-63
2023/11/11 09:42:49;;;;;;;9.87;3.07;;;8.70;99.90;;;;;;4912261;28;20207;-63
2023/11/11 09:45:15;;;;;;;9.63;2.73;;;9.30;99.90;;;;;;4911980;28;20203;-61
2023/11/11 09:47:42;;;;;;;6.97;2.40;;;9.40;99.90;;;;;;4912217;28;20191;-62
2023/11/11 09:50:10;;;;;;;3.53;2.37;;;9.60;99.90;;;;;;4912063;28;20257;-65
2023/11/11 09:52:36;;;;;;;8.33;3.20;;;9.40;99.90;;;;;;4912161;28;20184;-64
2023/11/11 09:55:03;;;;;;;7.97;2.63;;;9.10;99.90;;;;;;4911494;28;20682;-64
2023/11/11 09:57:31;;;;;;;9.00;2.93;;;8.70;99.90;;;;;;4912077;28;20180;-64
2023/11/11 09:59:57;;;;;;;7.23;2.70;;;8.60;99.90;;;;;;4903656;28;20212;-64
2023/11/11 10:02:23;;;;;;;8.27;3.07;;;8.60;99.90;;;;;;4911682;28;20242;-65
2023/11/11 10:04:50;;;;;;;6.20;3.17;;;8.70;99.90;;;;;;4910835;28;20295;-64
2023/11/11 10:07:15;;;;;;;4.97;2.70;;;8.60;99.90;;;;;;4911768;28;20214;-64
2023/11/11 10:09:42;;;;;;;11.80;2.70;;;8.60;99.90;;;;;;4911761;28;20565;-66
2023/11/11 10:12:08;;;;;;;6.37;2.50;;;9.00;99.90;;;;;;4911985;28;20218;-65
2023/11/11 10:14:35;;;;;;;7.27;2.73;;;9.30;99.90;;;;;;4909555;28;20191;-64
2023/11/11 10:17:03;;;;;;;9.47;2.83;;;9.50;99.90;;;;;;4904642;28;20235;-64
2023/11/11 10:19:29;;;;;;;4.10;2.20;;;9.50;99.90;;;;;;4911691;28;20180;-64
2023/11/11 10:21:59;;;;;;;7.10;2.17;;;9.40;99.90;;;;;;4912120;28;20211;-61
2023/11/11 10:24:25;;;;;;;4.87;2.00;;;9.30;99.90;;;;;;4911262;28;20191;-61
2023/11/11 10:26:52;;;;;;;10.93;3.17;;;9.20;99.90;;;;;;4911753;28;20192;-63
2023/11/11 10:29:18;;;;;;;8.77;2.87;;;9.00;99.90;;;;;;4911845;28;20731;-63
2023/11/11 10:31:47;;;;;;;8.60;2.77;;;9.00;99.90;;;;;;4911310;28;20301;-63
2023/11/11 10:34:13;;;;;;;8.93;3.13;;;8.80;99.90;;;;;;4910954;28;20756;-63
2023/11/11 10:36:44;;;;;;;9.50;2.87;;;8.80;99.90;;;;;;4911482;28;20216;-62
2023/11/11 10:39:11;;;;;;;4.77;2.30;;;8.80;99.90;;;;;;4910671;28;20269;-62
2023/11/11 10:41:38;;;;;;;5.57;2.50;;;8.70;99.90;;;;;;4911445;28;20216;-63
2023/11/11 10:44:07;;;;;;;8.80;4.23;;;8.70;99.90;;;;;;4903247;28;20231;-64
2023/11/11 10:46:39;;;;;;;6.80;2.07;;;8.70;99.90;;;;;;4911340;28;20192;-63
2023/11/11 10:49:08;;;;;;;4.40;1.90;;;8.80;99.90;;;;;;4911542;28;20528;-63
2023/11/11 10:51:34;;;;;;;5.83;2.17;;;8.80;99.90;;;;;;4902258;28;20223;-63
2023/11/11 10:54:04;;;;;;;5.60;1.80;;;8.70;99.90;;;;;;4910981;28;20275;-64
2023/11/11 10:56:34;;;;;;;5.77;2.00;;;8.60;99.90;;;;;;4903634;28;20180;-63
2023/11/11 10:59:03;;;;;;;3.70;2.00;;;8.50;99.90;;;;;;4903670;28;20184;-64
2023/11/11 11:01:31;;;;;;;6.23;2.17;;;8.50;99.90;;;;;;4911285;28;20699;-64
2023/11/11 11:03:56;;;;;;;6.33;2.20;;;8.60;99.90;;;;;;4910432;28;20188;-64
2023/11/11 11:06:25;;;;;;;4.83;2.10;;;8.70;99.90;;;;;;4911320;28;20271;-64
2023/11/11 11:09:14;;;;;;;4.73;2.07;;;8.90;99.90;;;;;;4911182;28;20192;-64
2023/11/11 11:11:58;;;;;;;8.80;2.20;;;9.20;99.90;;;;;;4910772;28;20215;-64
2023/11/11 11:14:49;;;;;;;8.17;2.30;;;9.40;99.90;;;;;;4910659;28;20273;-64
2023/11/11 11:17:16;;;;;;;6.07;2.53;;;9.30;99.90;;;;;;4911132;28;20179;-64
2023/11/11 11:20:00;;;;;;;8.17;2.20;;;9.20;99.90;;;;;;4910830;28;20192;-64
2023/11/11 11:22:37;;;;;;;6.20;1.80;;;9.00;99.90;;;;;;4910906;28;20188;-64
2023/11/11 11:28:09;;;;;;;3.87;1.60;;;8.90;99.90;;;;;;4903773;28;20215;-63
2023/11/11 11:30:38;;;;;;;2.53;1.43;;;9.00;99.90;;;;;;4904083;28;20219;-63
2023/11/11 11:33:11;;;;;;;4.80;2.20;;;9.10;99.90;;;;;;4911096;28;20187;-64
2023/11/11 11:35:39;;;;;;;5.40;2.20;;;9.20;99.90;;;;;;4910498;28;20273;-63
2023/11/11 11:38:08;;;;;;;6.37;2.10;;;9.30;99.90;;;;;;4910756;28;20180;-64
2023/11/11 11:40:35;;;;;;;6.57;1.90;;;9.20;99.90;;;;;;4902795;28;20208;-63
2023/11/11 11:43:08;;;;;;;8.47;2.07;;;9.30;99.90;;;;;;4910587;28;20188;-64
2023/11/11 11:45:35;;;;;;;9.33;1.83;;;9.10;99.90;;;;;;4910007;28;20580;-64
2023/11/11 11:48:01;;;;;;;4.53;1.90;;;8.80;99.90;;;;;;4910753;28;20188;-64
2023/11/11 11:50:27;;;;;;;6.23;2.10;;;8.90;99.90;;;;;;4911000;28;20219;-64
2023/11/11 11:52:53;;;;;;;4.33;2.20;;;9.10;99.90;;;;;;4902873;28;20600;-64
2023/11/11 11:55:19;;;;;;;8.53;2.03;;;9.30;99.90;;;;;;4909841;28;20618;-64
2023/11/11 11:57:55;;;;;;;5.43;1.90;;;9.40;99.90;;;;;;4910598;28;20195;-64
2023/11/11 12:00:21;;;;;;;7.27;2.20;;;9.20;99.90;;;;;;4910515;28;20774;-64
2023/11/11 12:02:47;;;;;;;12.97;2.23;;;9.10;99.90;;;;;;4910342;28;20184;-64
2023/11/11 12:05:13;;;;;;;5.67;1.80;;;9.10;99.90;;;;;;4901745;28;20543;-64
2023/11/11 12:07:40;;;;;;;6.13;1.67;;;8.90;99.90;;;;;;4910517;28;20275;-64
2023/11/11 12:10:09;;;;;;;3.80;1.60;;;8.70;99.90;;;;;;4910490;28;20209;-64
2023/11/11 12:12:35;;;;;;;3.03;1.70;;;8.30;99.90;;;;;;4902242;28;20215;-62
2023/11/11 12:15:08;;;;;;;6.47;1.57;;;7.90;99.90;;;;;;4910284;28;20230;-64
2023/11/11 12:17:34;;;;;;;2.97;1.70;;;7.60;99.90;;;;;;4910541;28;20200;-63
2023/11/11 12:20:00;;;;;;;2.27;1.33;;;7.30;99.90;;;;;;4910413;28;20204;-63
2023/11/11 12:22:27;;;;;;;4.47;1.73;;;7.20;99.90;;;;;;4911525;28;20199;-62
2023/11/11 12:24:56;;;;;;;3.43;2.10;;;7.10;99.90;;;;;;4913170;28;20258;-63
2023/11/11 12:27:21;;;;;;;4.97;1.80;;;7.20;99.90;;;;;;4913934;28;20192;-65
2023/11/11 12:29:47;;;;;;;5.53;1.83;;;7.40;99.90;;;;;;4913164;28;20188;-62
2023/11/11 12:32:13;;;;;;;4.07;1.87;;;7.70;99.90;;;;;;4913514;28;20219;-64
2023/11/11 12:34:40;;;;;;;5.00;2.20;;;8.00;99.90;;;;;;4912689;28;20657;-64
2023/11/11 12:37:05;;;;;;;5.60;2.73;;;8.30;99.90;;;;;;4908957;28;20246;-64
2023/11/11 12:39:32;;;;;;;9.60;2.87;;;8.60;99.90;;;;;;4910134;28;20641;-64
2023/11/11 12:41:58;;;;;;;8.90;2.57;;;8.90;99.90;;;;;;4905963;28;20729;-64
2023/11/11 12:44:24;;;;;;;9.13;2.17;;;9.10;99.90;;;;;;4945741;28;20287;-64
2023/11/11 12:46:51;;;;;;;7.13;2.00;;;9.30;99.90;;;;;;4913235;28;20240;-64
2023/11/11 12:49:18;;;;;;;6.23;1.47;;;9.50;99.90;;;;;;4907423;28;20339;-65
2023/11/11 12:51:45;;;;;;;6.63;1.70;;;9.70;99.90;;;;;;4911161;28;20204;-65
2023/11/11 12:54:12;;;;;;;7.60;2.60;;;9.80;99.90;;;;;;4905006;28;20241;-65